sensor_id;sensor_type;location;lat;lon;timestamp;P1;durP1;ratioP1;P2;durP2;ratioP2
67344;SDS011;54230;52.402;6.276;2023-09-12T00:00:00;53.0;;;27.1;;
67344;SDS011;54230;52.402;6.276;2023-09-12T00:05:00;63.4;;;31.3;;
67344;SDS011;54230;52.402;6.276;2023-09-12T00:10:00;58.2;;;28.7;;
67344;SDS011;54230;52.402;6.276;2023-09-12T00:15:00;75.1;;;36.1;;
67344;SDS011;54230;52.402;6.276;2023-09-12T00:20:00;58.5;;;29.3;;
67344;SDS011;54230;52.402;6.276;2023-09-12T00:25:00;56.1;;;29.0;;
67344;SDS011;54230;52.402;6.276;2023-09-12T00:30:00;72.0;;;35.3;;
67344;SDS011;54230;52.402;6.276;2023-09-12T00:35:00;63.2;;;32.0;;
67344;SDS011;54230;52.402;6.276;2023-09-12T00:40:00;54.0;;;28.3;;
67344;SDS011;54230;52.402;6.276;2023-09-12T00:45:00;67.3;;;32.8;;
67344;SDS011;54230;52.402;6.276;2023-09-12T00:50:00;72.5;;;35.0;;
67344;SDS011;54230;52.402;6.276;2023-09-12T00:55:00;69.2;;;33.6;;
67344;SDS011;54230;52.402;6.276;2023-09-12T01:00:01;74.0;;;36.1;;
67344;SDS011;54230;52.402;6.276;2023-09-12T01:05:00;76.2;;;34.3;;
67344;SDS011;54230;52.402;6.276;2023-09-12T01:10:00;85.0;;;36.4;;
67344;SDS011;54230;52.402;6.276;2023-09-12T01:15:00;86.2;;;36.6;;
67344;SDS011;54230;52.402;6.276;2023-09-12T01:20:00;86.6;;;37.0;;
67344;SDS011;54230;52.402;6.276;2023-09-12T01:25:06;73.7;;;31.9;;
67344;SDS011;54230;52.402;6.276;2023-09-12T01:30:01;82.1;;;33.5;;
67344;SDS011;54230;52.402;6.276;2023-09-12T01:35:00;84.2;;;35.2;;
67344;SDS011;54230;52.402;6.276;2023-09-12T01:40:00;81.3;;;33.1;;
67344;SDS011;54230;52.402;6.276;2023-09-12T01:45:00;80.5;;;34.3;;
67344;SDS011;54230;52.402;6.276;2023-09-12T01:50:00;87.0;;;35.8;;
67344;SDS011;54230;52.402;6.276;2023-09-12T01:55:00;87.8;;;36.5;;
67344;SDS011;54230;52.402;6.276;2023-09-12T02:00:00;94.4;;;38.3;;
67344;SDS011;54230;52.402;6.276;2023-09-12T02:05:04;92.6;;;37.7;;
67344;SDS011;54230;52.402;6.276;2023-09-12T02:10:00;96.1;;;38.3;;
67344;SDS011;54230;52.402;6.276;2023-09-12T02:15:00;105.8;;;39.3;;
67344;SDS011;54230;52.402;6.276;2023-09-12T02:20:00;113.8;;;40.6;;
67344;SDS011;54230;52.402;6.276;2023-09-12T02:25:00;117.1;;;40.7;;
67344;SDS011;54230;52.402;6.276;2023-09-12T02:30:00;219.7;;;41.7;;
67344;SDS011;54230;52.402;6.276;2023-09-12T02:35:00;556.5;;;45.6;;
67344;SDS011;54230;52.402;6.276;2023-09-12T02:40:00;350.1;;;40.5;;
67344;SDS011;54230;52.402;6.276;2023-09-12T02:45:00;499.8;;;40.1;;
67344;SDS011;54230;52.402;6.276;2023-09-12T02:50:00;244.4;;;37.8;;
67344;SDS011;54230;52.402;6.276;2023-09-12T02:55:00;405.0;;;38.2;;
67344;SDS011;54230;52.402;6.276;2023-09-12T03:00:00;166.4;;;35.4;;
67344;SDS011;54230;52.402;6.276;2023-09-12T03:05:00;465.2;;;43.6;;
67344;SDS011;54230;52.402;6.276;2023-09-12T03:10:00;400.7;;;41.7;;
67344;SDS011;54230;52.402;6.276;2023-09-12T03:15:00;249.8;;;39.2;;
67344;SDS011;54230;52.402;6.276;2023-09-12T03:20:00;526.4;;;45.6;;
67344;SDS011;54230;52.402;6.276;2023-09-12T03:25:00;323.8;;;39.4;;
67344;SDS011;54230;52.402;6.276;2023-09-12T03:30:00;267.8;;;39.6;;
67344;SDS011;54230;52.402;6.276;2023-09-12T03:35:00;277.5;;;38.6;;
67344;SDS011;54230;52.402;6.276;2023-09-12T03:40:00;223.8;;;35.7;;
67344;SDS011;54230;52.402;6.276;2023-09-12T03:45:00;267.2;;;38.1;;
67344;SDS011;54230;52.402;6.276;2023-09-12T03:50:00;265.8;;;36.6;;
67344;SDS011;54230;52.402;6.276;2023-09-12T03:55:00;270.3;;;37.2;;
67344;SDS011;54230;52.402;6.276;2023-09-12T04:00:00;334.8;;;38.1;;
67344;SDS011;54230;52.402;6.276;2023-09-12T04:05:00;193.0;;;38.8;;
67344;SDS011;54230;52.402;6.276;2023-09-12T04:10:00;136.1;;;38.5;;
67344;SDS011;54230;52.402;6.276;2023-09-12T04:15:00;127.2;;;38.3;;
67344;SDS011;54230;52.402;6.276;2023-09-12T04:20:00;117.5;;;37.4;;
67344;SDS011;54230;52.402;6.276;2023-09-12T04:25:00;111.7;;;36.7;;
67344;SDS011;54230;52.402;6.276;2023-09-12T04:30:00;97.7;;;35.1;;
67344;SDS011;54230;52.402;6.276;2023-09-12T04:35:00;93.1;;;33.6;;
67344;SDS011;54230;52.402;6.276;2023-09-12T04:40:00;85.4;;;32.6;;
67344;SDS011;54230;52.402;6.276;2023-09-12T04:45:00;75.3;;;29.4;;
67344;SDS011;54230;52.402;6.276;2023-09-12T04:50:00;68.4;;;28.2;;
67344;SDS011;54230;52.402;6.276;2023-09-12T04:55:00;68.4;;;27.8;;
67344;SDS011;54230;52.402;6.276;2023-09-12T05:00:00;67.3;;;28.3;;
67344;SDS011;54230;52.402;6.276;2023-09-12T05:05:00;71.4;;;28.7;;
67344;SDS011;54230;52.402;6.276;2023-09-12T05:10:00;73.4;;;30.2;;
67344;SDS011;54230;52.402;6.276;2023-09-12T05:15:00;65.3;;;27.8;;
67344;SDS011;54230;52.402;6.276;2023-09-12T05:20:01;67.1;;;28.9;;
67344;SDS011;54230;52.402;6.276;2023-09-12T05:25:00;68.0;;;28.6;;
67344;SDS011;54230;52.402;6.276;2023-09-12T05:30:00;63.9;;;27.9;;
67344;SDS011;54230;52.402;6.276;2023-09-12T05:35:00;62.0;;;26.9;;
67344;SDS011;54230;52.402;6.276;2023-09-12T05:40:00;53.3;;;24.9;;
67344;SDS011;54230;52.402;6.276;2023-09-12T05:45:00;57.9;;;26.7;;
67344;SDS011;54230;52.402;6.276;2023-09-12T05:50:00;46.5;;;23.0;;
67344;SDS011;54230;52.402;6.276;2023-09-12T05:55:00;52.2;;;25.5;;
67344;SDS011;54230;52.402;6.276;2023-09-12T06:00:00;49.8;;;25.2;;
67344;SDS011;54230;52.402;6.276;2023-09-12T06:05:00;52.8;;;25.7;;
67344;SDS011;54230;52.402;6.276;2023-09-12T06:10:00;47.4;;;25.2;;
67344;SDS011;54230;52.402;6.276;2023-09-12T06:15:00;47.2;;;24.6;;
67344;SDS011;54230;52.402;6.276;2023-09-12T06:20:00;51.0;;;25.1;;
67344;SDS011;54230;52.402;6.276;2023-09-12T06:25:00;43.8;;;23.6;;
67344;SDS011;54230;52.402;6.276;2023-09-12T06:30:00;47.5;;;24.1;;
67344;SDS011;54230;52.402;6.276;2023-09-12T06:35:00;46.4;;;24.5;;
67344;SDS011;54230;52.402;6.276;2023-09-12T06:40:00;51.8;;;26.2;;
67344;SDS011;54230;52.402;6.276;2023-09-12T06:45:00;53.6;;;26.1;;
67344;SDS011;54230;52.402;6.276;2023-09-12T06:50:01;51.6;;;26.7;;
67344;SDS011;54230;52.402;6.276;2023-09-12T06:55:00;46.2;;;22.5;;
67344;SDS011;54230;52.402;6.276;2023-09-12T07:00:00;51.2;;;26.2;;
67344;SDS011;54230;52.402;6.276;2023-09-12T07:05:00;50.9;;;25.8;;
67344;SDS011;54230;52.402;6.276;2023-09-12T07:10:00;47.9;;;25.8;;
67344;SDS011;54230;52.402;6.276;2023-09-12T07:15:00;46.6;;;25.5;;
67344;SDS011;54230;52.402;6.276;2023-09-12T07:20:00;46.0;;;25.9;;
67344;SDS011;54230;52.402;6.276;2023-09-12T07:25:00;44.8;;;24.7;;
67344;SDS011;54230;52.402;6.276;2023-09-12T07:30:00;47.8;;;25.6;;
67344;SDS011;54230;52.402;6.276;2023-09-12T07:35:00;46.8;;;24.8;;
67344;SDS011;54230;52.402;6.276;2023-09-12T07:40:00;45.0;;;25.0;;
67344;SDS011;54230;52.402;6.276;2023-09-12T07:45:00;40.7;;;23.2;;
67344;SDS011;54230;52.402;6.276;2023-09-12T07:50:00;42.9;;;23.3;;
67344;SDS011;54230;52.402;6.276;2023-09-12T07:55:00;45.2;;;25.7;;
67344;SDS011;54230;52.402;6.276;2023-09-12T08:00:00;43.9;;;24.0;;
67344;SDS011;54230;52.402;6.276;2023-09-12T08:05:00;40.2;;;23.2;;
67344;SDS011;54230;52.402;6.276;2023-09-12T08:10:00;43.5;;;25.2;;
67344;SDS011;54230;52.402;6.276;2023-09-12T08:15:00;44.1;;;24.5;;
67344;SDS011;54230;52.402;6.276;2023-09-12T08:20:00;42.3;;;24.2;;
67344;SDS011;54230;52.402;6.276;2023-09-12T08:25:00;38.2;;;21.1;;
67344;SDS011;54230;52.402;6.276;2023-09-12T08:30:00;39.3;;;22.4;;
67344;SDS011;54230;52.402;6.276;2023-09-12T08:35:00;39.7;;;22.9;;
67344;SDS011;54230;52.402;6.276;2023-09-12T08:40:00;40.5;;;23.6;;
67344;SDS011;54230;52.402;6.276;2023-09-12T08:45:00;37.6;;;22.0;;
67344;SDS011;54230;52.402;6.276;2023-09-12T08:50:00;38.7;;;22.8;;
67344;SDS011;54230;52.402;6.276;2023-09-12T08:55:00;40.2;;;23.6;;
67344;SDS011;54230;52.402;6.276;2023-09-12T09:00:00;36.1;;;22.2;;
67344;SDS011;54230;52.402;6.276;2023-09-12T09:05:00;39.0;;;22.3;;
67344;SDS011;54230;52.402;6.276;2023-09-12T09:10:01;35.8;;;20.8;;
67344;SDS011;54230;52.402;6.276;2023-09-12T09:20:00;32.0;;;20.2;;
67344;SDS011;54230;52.402;6.276;2023-09-12T09:30:00;28.9;;;17.5;;
67344;SDS011;54230;52.402;6.276;2023-09-12T09:35:00;27.9;;;18.1;;
67344;SDS011;54230;52.402;6.276;2023-09-12T09:40:00;31.0;;;18.2;;
67344;SDS011;54230;52.402;6.276;2023-09-12T09:45:00;25.4;;;15.8;;
67344;SDS011;54230;52.402;6.276;2023-09-12T09:50:00;27.3;;;17.1;;
67344;SDS011;54230;52.402;6.276;2023-09-12T09:55:00;23.7;;;14.1;;
67344;SDS011;54230;52.402;6.276;2023-09-12T10:00:00;20.4;;;13.2;;
67344;SDS011;54230;52.402;6.276;2023-09-12T10:05:00;25.7;;;15.8;;
67344;SDS011;54230;52.402;6.276;2023-09-12T10:10:00;21.3;;;13.7;;
67344;SDS011;54230;52.402;6.276;2023-09-12T10:15:00;18.3;;;11.9;;
67344;SDS011;54230;52.402;6.276;2023-09-12T10:20:02;19.1;;;12.0;;
67344;SDS011;54230;52.402;6.276;2023-09-12T10:25:00;16.6;;;10.8;;
67344;SDS011;54230;52.402;6.276;2023-09-12T10:30:00;18.6;;;12.2;;
67344;SDS011;54230;52.402;6.276;2023-09-12T10:35:00;20.7;;;12.8;;
67344;SDS011;54230;52.402;6.276;2023-09-12T10:40:00;19.9;;;12.0;;
67344;SDS011;54230;52.402;6.276;2023-09-12T10:45:00;15.8;;;9.5;;
67344;SDS011;54230;52.402;6.276;2023-09-12T10:50:00;15.9;;;11.0;;
67344;SDS011;54230;52.402;6.276;2023-09-12T10:55:03;15.7;;;9.6;;
67344;SDS011;54230;52.402;6.276;2023-09-12T11:00:09;16.9;;;11.2;;
67344;SDS011;54230;52.402;6.276;2023-09-12T11:05:01;16.6;;;10.6;;
67344;SDS011;54230;52.402;6.276;2023-09-12T11:15:03;15.3;;;9.7;;
67344;SDS011;54230;52.402;6.276;2023-09-12T11:20:02;18.4;;;11.6;;
67344;SDS011;54230;52.402;6.276;2023-09-12T11:25:01;14.5;;;9.8;;
67344;SDS011;54230;52.402;6.276;2023-09-12T11:30:03;16.6;;;10.9;;
67344;SDS011;54230;52.402;6.276;2023-09-12T11:35:04;18.0;;;10.5;;
67344;SDS011;54230;52.402;6.276;2023-09-12T11:40:00;15.0;;;9.9;;
67344;SDS011;54230;52.402;6.276;2023-09-12T11:45:00;15.6;;;10.9;;
67344;SDS011;54230;52.402;6.276;2023-09-12T11:50:00;16.0;;;10.3;;
67344;SDS011;54230;52.402;6.276;2023-09-12T11:55:00;13.4;;;9.2;;
67344;SDS011;54230;52.402;6.276;2023-09-12T12:00:02;15.8;;;9.5;;
67344;SDS011;54230;52.402;6.276;2023-09-12T12:05:00;14.1;;;8.8;;
67344;SDS011;54230;52.402;6.276;2023-09-12T12:10:00;11.7;;;8.3;;
67344;SDS011;54230;52.402;6.276;2023-09-12T12:15:00;13.8;;;8.6;;
67344;SDS011;54230;52.402;6.276;2023-09-12T12:20:00;16.3;;;9.3;;
67344;SDS011;54230;52.402;6.276;2023-09-12T12:25:05;14.0;;;9.3;;
67344;SDS011;54230;52.402;6.276;2023-09-12T12:30:00;15.7;;;9.8;;
67344;SDS011;54230;52.402;6.276;2023-09-12T12:35:00;14.2;;;8.9;;
67344;SDS011;54230;52.402;6.276;2023-09-12T12:40:00;13.0;;;7.9;;
67344;SDS011;54230;52.402;6.276;2023-09-12T12:45:00;14.2;;;9.4;;
67344;SDS011;54230;52.402;6.276;2023-09-12T12:50:00;16.4;;;9.7;;
67344;SDS011;54230;52.402;6.276;2023-09-12T12:55:03;14.6;;;8.7;;
67344;SDS011;54230;52.402;6.276;2023-09-12T13:00:00;12.5;;;7.3;;
67344;SDS011;54230;52.402;6.276;2023-09-12T13:05:00;11.1;;;5.6;;
67344;SDS011;54230;52.402;6.276;2023-09-12T13:10:00;8.3;;;5.3;;
67344;SDS011;54230;52.402;6.276;2023-09-12T13:15:01;8.4;;;5.0;;
67344;SDS011;54230;52.402;6.276;2023-09-12T13:20:00;12.3;;;6.7;;
67344;SDS011;54230;52.402;6.276;2023-09-12T13:25:00;11.2;;;6.6;;
67344;SDS011;54230;52.402;6.276;2023-09-12T13:30:00;10.8;;;6.3;;
67344;SDS011;54230;52.402;6.276;2023-09-12T13:35:00;11.3;;;7.6;;
67344;SDS011;54230;52.402;6.276;2023-09-12T13:40:00;10.3;;;6.6;;
67344;SDS011;54230;52.402;6.276;2023-09-12T13:45:00;11.3;;;6.9;;
67344;SDS011;54230;52.402;6.276;2023-09-12T13:50:00;10.1;;;7.2;;
67344;SDS011;54230;52.402;6.276;2023-09-12T13:55:00;15.3;;;7.9;;
67344;SDS011;54230;52.402;6.276;2023-09-12T14:00:00;15.3;;;7.8;;
67344;SDS011;54230;52.402;6.276;2023-09-12T14:05:00;14.0;;;9.0;;
67344;SDS011;54230;52.402;6.276;2023-09-12T14:10:00;11.5;;;7.5;;
67344;SDS011;54230;52.402;6.276;2023-09-12T14:15:00;10.2;;;8.3;;
67344;SDS011;54230;52.402;6.276;2023-09-12T14:20:00;13.6;;;8.1;;
67344;SDS011;54230;52.402;6.276;2023-09-12T14:25:00;11.5;;;8.2;;
67344;SDS011;54230;52.402;6.276;2023-09-12T14:30:00;13.2;;;8.7;;
67344;SDS011;54230;52.402;6.276;2023-09-12T14:35:00;16.3;;;9.0;;
67344;SDS011;54230;52.402;6.276;2023-09-12T14:40:02;13.3;;;9.1;;
67344;SDS011;54230;52.402;6.276;2023-09-12T14:45:00;15.0;;;9.5;;
67344;SDS011;54230;52.402;6.276;2023-09-12T14:50:00;12.7;;;8.4;;
67344;SDS011;54230;52.402;6.276;2023-09-12T14:55:00;12.8;;;8.1;;
67344;SDS011;54230;52.402;6.276;2023-09-12T15:00:00;11.6;;;8.0;;
67344;SDS011;54230;52.402;6.276;2023-09-12T15:05:01;12.6;;;8.5;;
67344;SDS011;54230;52.402;6.276;2023-09-12T15:10:00;11.6;;;8.1;;
67344;SDS011;54230;52.402;6.276;2023-09-12T15:15:02;14.7;;;8.7;;
67344;SDS011;54230;52.402;6.276;2023-09-12T15:20:00;11.9;;;6.5;;
67344;SDS011;54230;52.402;6.276;2023-09-12T15:25:01;10.0;;;5.7;;
67344;SDS011;54230;52.402;6.276;2023-09-12T15:30:00;10.0;;;5.1;;
67344;SDS011;54230;52.402;6.276;2023-09-12T15:35:00;8.3;;;4.7;;
67344;SDS011;54230;52.402;6.276;2023-09-12T15:40:00;7.5;;;4.5;;
67344;SDS011;54230;52.402;6.276;2023-09-12T15:45:00;8.9;;;4.4;;
67344;SDS011;54230;52.402;6.276;2023-09-12T15:50:00;7.5;;;4.1;;
67344;SDS011;54230;52.402;6.276;2023-09-12T15:55:00;7.6;;;4.0;;
67344;SDS011;54230;52.402;6.276;2023-09-12T16:00:00;9.1;;;4.4;;
67344;SDS011;54230;52.402;6.276;2023-09-12T16:05:00;6.9;;;4.0;;
67344;SDS011;54230;52.402;6.276;2023-09-12T16:10:00;9.2;;;4.3;;
67344;SDS011;54230;52.402;6.276;2023-09-12T16:15:00;9.6;;;4.2;;
67344;SDS011;54230;52.402;6.276;2023-09-12T16:20:00;8.4;;;4.7;;
67344;SDS011;54230;52.402;6.276;2023-09-12T16:25:00;10.1;;;4.8;;
67344;SDS011;54230;52.402;6.276;2023-09-12T16:30:00;8.0;;;4.5;;
67344;SDS011;54230;52.402;6.276;2023-09-12T16:35:00;10.1;;;4.3;;
67344;SDS011;54230;52.402;6.276;2023-09-12T16:40:00;7.9;;;4.1;;
67344;SDS011;54230;52.402;6.276;2023-09-12T16:45:00;8.1;;;4.1;;
67344;SDS011;54230;52.402;6.276;2023-09-12T16:50:00;7.6;;;3.4;;
67344;SDS011;54230;52.402;6.276;2023-09-12T16:55:00;5.8;;;3.1;;
67344;SDS011;54230;52.402;6.276;2023-09-12T17:00:00;5.8;;;3.2;;
67344;SDS011;54230;52.402;6.276;2023-09-12T17:05:00;6.0;;;3.1;;
67344;SDS011;54230;52.402;6.276;2023-09-12T17:10:00;7.5;;;3.5;;
67344;SDS011;54230;52.402;6.276;2023-09-12T17:15:00;7.3;;;3.7;;
67344;SDS011;54230;52.402;6.276;2023-09-12T17:20:00;8.0;;;4.7;;
67344;SDS011;54230;52.402;6.276;2023-09-12T17:25:00;7.6;;;4.3;;
67344;SDS011;54230;52.402;6.276;2023-09-12T17:30:00;7.9;;;4.1;;
67344;SDS011;54230;52.402;6.276;2023-09-12T17:35:00;7.5;;;3.6;;
67344;SDS011;54230;52.402;6.276;2023-09-12T17:40:00;8.4;;;4.3;;
67344;SDS011;54230;52.402;6.276;2023-09-12T17:45:00;8.1;;;4.5;;
67344;SDS011;54230;52.402;6.276;2023-09-12T17:50:00;7.0;;;4.4;;
67344;SDS011;54230;52.402;6.276;2023-09-12T17:55:00;8.8;;;4.7;;
67344;SDS011;54230;52.402;6.276;2023-09-12T18:00:00;9.1;;;5.0;;
67344;SDS011;54230;52.402;6.276;2023-09-12T18:05:00;9.5;;;4.8;;
67344;SDS011;54230;52.402;6.276;2023-09-12T18:10:00;8.5;;;5.0;;
67344;SDS011;54230;52.402;6.276;2023-09-12T18:15:00;10.5;;;5.0;;
67344;SDS011;54230;52.402;6.276;2023-09-12T18:20:00;8.6;;;4.8;;
67344;SDS011;54230;52.402;6.276;2023-09-12T18:25:00;10.6;;;5.7;;
67344;SDS011;54230;52.402;6.276;2023-09-12T18:30:00;10.7;;;5.9;;
67344;SDS011;54230;52.402;6.276;2023-09-12T18:35:00;12.6;;;5.9;;
67344;SDS011;54230;52.402;6.276;2023-09-12T18:40:00;9.9;;;6.1;;
67344;SDS011;54230;52.402;6.276;2023-09-12T18:45:00;11.1;;;6.2;;
67344;SDS011;54230;52.402;6.276;2023-09-12T18:50:01;12.0;;;7.0;;
67344;SDS011;54230;52.402;6.276;2023-09-12T18:55:00;12.3;;;6.3;;
67344;SDS011;54230;52.402;6.276;2023-09-12T19:00:00;11.6;;;6.3;;
67344;SDS011;54230;52.402;6.276;2023-09-12T19:05:00;11.6;;;6.4;;
67344;SDS011;54230;52.402;6.276;2023-09-12T19:10:00;14.3;;;7.8;;
67344;SDS011;54230;52.402;6.276;2023-09-12T19:15:00;11.8;;;6.6;;
67344;SDS011;54230;52.402;6.276;2023-09-12T19:20:00;10.7;;;6.6;;
67344;SDS011;54230;52.402;6.276;2023-09-12T19:25:00;12.1;;;6.6;;
67344;SDS011;54230;52.402;6.276;2023-09-12T19:30:00;10.9;;;6.8;;
67344;SDS011;54230;52.402;6.276;2023-09-12T19:35:00;11.6;;;6.6;;
67344;SDS011;54230;52.402;6.276;2023-09-12T19:40:00;11.3;;;6.9;;
67344;SDS011;54230;52.402;6.276;2023-09-12T19:45:00;12.0;;;7.6;;
67344;SDS011;54230;52.402;6.276;2023-09-12T19:50:00;13.6;;;7.4;;
67344;SDS011;54230;52.402;6.276;2023-09-12T19:55:00;13.1;;;7.3;;
67344;SDS011;54230;52.402;6.276;2023-09-12T20:00:00;12.2;;;7.1;;
67344;SDS011;54230;52.402;6.276;2023-09-12T20:05:00;9.9;;;6.8;;
67344;SDS011;54230;52.402;6.276;2023-09-12T20:10:00;13.5;;;7.5;;
67344;SDS011;54230;52.402;6.276;2023-09-12T20:15:00;13.0;;;7.4;;
67344;SDS011;54230;52.402;6.276;2023-09-12T20:20:00;11.6;;;6.6;;
67344;SDS011;54230;52.402;6.276;2023-09-12T20:25:00;11.4;;;7.5;;
67344;SDS011;54230;52.402;6.276;2023-09-12T20:30:00;14.0;;;7.6;;
67344;SDS011;54230;52.402;6.276;2023-09-12T20:35:00;11.4;;;7.3;;
67344;SDS011;54230;52.402;6.276;2023-09-12T20:40:00;11.9;;;7.0;;
67344;SDS011;54230;52.402;6.276;2023-09-12T20:45:00;14.2;;;8.9;;
67344;SDS011;54230;52.402;6.276;2023-09-12T20:50:00;15.8;;;9.1;;
67344;SDS011;54230;52.402;6.276;2023-09-12T20:55:00;15.8;;;9.0;;
67344;SDS011;54230;52.402;6.276;2023-09-12T21:00:00;13.8;;;9.1;;
67344;SDS011;54230;52.402;6.276;2023-09-12T21:05:00;13.5;;;7.9;;
67344;SDS011;54230;52.402;6.276;2023-09-12T21:10:00;14.9;;;8.5;;
67344;SDS011;54230;52.402;6.276;2023-09-12T21:15:00;14.3;;;9.5;;
67344;SDS011;54230;52.402;6.276;2023-09-12T21:20:00;17.5;;;10.1;;
67344;SDS011;54230;52.402;6.276;2023-09-12T21:25:00;15.3;;;8.7;;
67344;SDS011;54230;52.402;6.276;2023-09-12T21:30:01;15.7;;;9.3;;
67344;SDS011;54230;52.402;6.276;2023-09-12T21:35:08;15.4;;;9.4;;
67344;SDS011;54230;52.402;6.276;2023-09-12T21:40:00;17.8;;;10.5;;
67344;SDS011;54230;52.402;6.276;2023-09-12T21:45:00;17.9;;;10.1;;
67344;SDS011;54230;52.402;6.276;2023-09-12T21:50:00;17.1;;;10.4;;
67344;SDS011;54230;52.402;6.276;2023-09-12T21:55:00;17.9;;;11.4;;
67344;SDS011;54230;52.402;6.276;2023-09-12T22:00:00;19.9;;;11.5;;
67344;SDS011;54230;52.402;6.276;2023-09-12T22:05:00;17.0;;;10.7;;
67344;SDS011;54230;52.402;6.276;2023-09-12T22:10:00;18.2;;;11.2;;
67344;SDS011;54230;52.402;6.276;2023-09-12T22:15:00;17.8;;;10.4;;
67344;SDS011;54230;52.402;6.276;2023-09-12T22:20:00;17.1;;;10.7;;
67344;SDS011;54230;52.402;6.276;2023-09-12T22:25:00;13.6;;;9.0;;
67344;SDS011;54230;52.402;6.276;2023-09-12T22:30:00;17.1;;;9.9;;
67344;SDS011;54230;52.402;6.276;2023-09-12T22:35:00;15.3;;;9.9;;
67344;SDS011;54230;52.402;6.276;2023-09-12T22:40:00;15.9;;;10.2;;
67344;SDS011;54230;52.402;6.276;2023-09-12T22:45:00;13.9;;;9.0;;
67344;SDS011;54230;52.402;6.276;2023-09-12T22:50:02;13.3;;;8.5;;
67344;SDS011;54230;52.402;6.276;2023-09-12T22:55:00;11.3;;;7.4;;
67344;SDS011;54230;52.402;6.276;2023-09-12T23:00:00;12.1;;;7.6;;
67344;SDS011;54230;52.402;6.276;2023-09-12T23:05:00;11.2;;;7.6;;
67344;SDS011;54230;52.402;6.276;2023-09-12T23:10:00;12.6;;;8.2;;
67344;SDS011;54230;52.402;6.276;2023-09-12T23:15:00;14.3;;;8.9;;
67344;SDS011;54230;52.402;6.276;2023-09-12T23:20:00;13.8;;;8.5;;
67344;SDS011;54230;52.402;6.276;2023-09-12T23:25:00;13.5;;;8.5;;
67344;SDS011;54230;52.402;6.276;2023-09-12T23:30:00;15.3;;;9.3;;
67344;SDS011;54230;52.402;6.276;2023-09-12T23:35:00;18.0;;;10.4;;
67344;SDS011;54230;52.402;6.276;2023-09-12T23:40:00;16.9;;;9.3;;
67344;SDS011;54230;52.402;6.276;2023-09-12T23:45:01;15.7;;;9.0;;
67344;SDS011;54230;52.402;6.276;2023-09-12T23:50:00;17.2;;;9.8;;
67344;SDS011;54230;52.402;6.276;2023-09-12T23:55:00;17.9;;;10.0;;
